createdAt,value
2023-10-20T00:00:19.425Z,18.9
2023-10-20T00:05:56.709Z,18.9
2023-10-20T00:11:48.159Z,18.9
2023-10-20T00:17:39.837Z,18.9
2023-10-20T00:23:31.637Z,18.9
2023-10-20T00:29:23.475Z,18.9
2023-10-20T00:35:15.578Z,18.9
2023-10-20T00:41:07.021Z,18.9
2023-10-20T00:46:59.553Z,18.9
2023-10-20T00:52:51.997Z,18.9
2023-10-20T00:58:44.302Z,18.9
2023-10-20T01:04:37.477Z,18.9
2023-10-20T01:10:29.414Z,18.9
2023-10-20T01:16:21.892Z,18.9
2023-10-20T01:22:13.677Z,18.9
2023-10-20T01:28:05.546Z,18.8
2023-10-20T01:33:57.416Z,18.8
2023-10-20T01:39:48.906Z,18.8
2023-10-20T01:45:41.163Z,18.9
2023-10-20T01:51:33.984Z,18.8
2023-10-20T01:57:25.948Z,18.8
2023-10-20T02:03:18.261Z,18.8
2023-10-20T02:14:48.114Z,18.8
2023-10-20T02:20:40.752Z,18.9
2023-10-20T02:26:32.701Z,18.9
2023-10-20T02:32:24.772Z,18.9
2023-10-20T02:38:16.960Z,18.8
2023-10-20T02:44:08.187Z,18.9
2023-10-20T02:50:00.685Z,18.9
2023-10-20T02:55:53.182Z,18.9
2023-10-20T03:01:44.922Z,18.8
2023-10-20T03:07:38.829Z,18.8
2023-10-20T03:13:30.295Z,18.8
2023-10-20T03:19:22.349Z,18.8
2023-10-20T03:25:17.100Z,18.8
2023-10-20T03:31:09.491Z,18.8
2023-10-20T03:37:01.906Z,18.8
2023-10-20T03:42:53.519Z,18.8
2023-10-20T03:48:46.373Z,18.8
2023-10-20T03:54:38.441Z,18.8
2023-10-20T04:00:30.398Z,18.8
2023-10-20T04:06:07.946Z,18.8
2023-10-20T04:56:26.952Z,18.8
2023-10-20T05:02:19.449Z,18.8
2023-10-20T05:07:59.415Z,18.8
2023-10-20T05:13:35.233Z,18.8
2023-10-20T05:19:11.915Z,18.8
2023-10-20T05:24:47.815Z,18.8
2023-10-20T05:30:26.416Z,18.8
2023-10-20T06:03:04.908Z,18.8
2023-10-20T06:24:44.140Z,18.8
2023-10-20T06:35:42.711Z,18.8
2023-10-20T06:41:19.829Z,18.8
2023-10-20T06:46:57.111Z,18.8
2023-10-20T06:52:49.474Z,18.8
2023-10-20T06:59:37.119Z,18.8
2023-10-20T07:05:29.600Z,18.8
2023-10-20T07:11:21.450Z,18.8
2023-10-20T07:17:18.632Z,18.8
2023-10-20T07:23:13.452Z,18.8
2023-10-20T07:29:05.403Z,18.8
2023-10-20T07:35:05.448Z,18.8
2023-10-20T07:40:57.462Z,18.8
2023-10-20T07:46:49.687Z,18.8
2023-10-20T07:58:22.304Z,18.9
2023-10-20T08:04:18.509Z,18.9
2023-10-20T08:10:15.801Z,18.9
2023-10-20T08:16:10.945Z,18.9
2023-10-20T08:22:04.068Z,18.9
2023-10-20T08:27:56.389Z,18.9
2023-10-20T08:33:49.468Z,18.9
2023-10-20T08:39:42.201Z,18.9
2023-10-20T08:51:06.813Z,18.9
2023-10-20T08:57:04.309Z,18.9
2023-10-20T09:03:14.680Z,19
2023-10-20T09:09:10.100Z,19
2023-10-20T09:15:05.611Z,19.1
2023-10-20T09:20:58.769Z,19.1
2023-10-20T09:32:22.231Z,19.1
2023-10-20T09:38:01.424Z,19.1
2023-10-20T09:44:04.428Z,19.1
2023-10-20T09:50:00.661Z,19.1
2023-10-20T09:55:58.642Z,19.2
2023-10-20T10:01:52.245Z,19.2
2023-10-20T10:07:47.524Z,19.2
2023-10-20T10:13:39.647Z,19.2
2023-10-20T10:19:34.642Z,19.2
2023-10-20T10:25:38.402Z,19.2
2023-10-20T10:31:35.177Z,19.2
2023-10-20T10:37:48.417Z,19.3
2023-10-20T10:43:42.458Z,19.3
2023-10-20T10:49:40.097Z,19.3
2023-10-20T10:55:37.877Z,19.4
2023-10-20T11:01:36.102Z,19.4
2023-10-20T11:07:32.080Z,19.4
2023-10-20T11:13:24.735Z,19.4
2023-10-20T11:19:21.307Z,19.5
2023-10-20T11:25:17.085Z,19.5
2023-10-20T11:31:21.985Z,19.4
2023-10-20T11:37:14.124Z,19.4
2023-10-20T11:43:06.468Z,19.5
2023-10-20T11:48:57.792Z,19.5
2023-10-20T11:54:54.095Z,19.5
2023-10-20T12:00:48.327Z,19.5
2023-10-20T12:06:40.957Z,19.6
2023-10-20T12:12:17.827Z,19.6
2023-10-20T12:18:09.821Z,19.7
2023-10-20T12:23:47.108Z,19.8
2023-10-20T12:29:42.096Z,19.8
2023-10-20T12:35:36.404Z,19.9
2023-10-20T12:41:27.807Z,19.9
2023-10-20T12:47:05.454Z,20
2023-10-20T12:52:43.461Z,20
2023-10-20T12:58:19.262Z,19.9
2023-10-20T13:03:58.117Z,19.9
2023-10-20T13:09:46.896Z,19.9
2023-10-20T13:15:41.558Z,19.9
2023-10-20T13:21:18.882Z,19.9
2023-10-20T13:27:10.776Z,20
2023-10-20T13:33:07.183Z,20
2023-10-20T13:39:17.076Z,20.1
2023-10-20T13:45:09.922Z,20
2023-10-20T13:51:02.042Z,20
2023-10-20T13:56:55.010Z,20
2023-10-20T14:02:47.392Z,20
2023-10-20T14:08:26.929Z,20
2023-10-20T14:14:03.270Z,20
2023-10-20T14:19:40.108Z,20.1
2023-10-20T14:25:15.456Z,20.1
2023-10-20T14:30:51.602Z,20.1
2023-10-20T14:36:28.570Z,20.1
2023-10-20T14:42:07.628Z,20.2
2023-10-20T14:47:44.239Z,20.2
2023-10-20T14:53:20.584Z,20.3
2023-10-20T14:59:13.195Z,20.3
2023-10-20T15:05:07.924Z,20.3
2023-10-20T15:11:00.611Z,20.3
2023-10-20T15:16:55.301Z,20.3
2023-10-20T15:22:49.393Z,20.3
2023-10-20T15:28:53.685Z,20.2
2023-10-20T15:34:46.551Z,20.2
2023-10-20T15:41:07.662Z,20.2
2023-10-20T15:46:59.572Z,20.2
2023-10-20T15:52:51.819Z,20.2
2023-10-20T15:58:43.709Z,20.2
2023-10-20T16:04:40.133Z,20.1
2023-10-20T16:10:16.351Z,20.1
2023-10-20T16:16:07.133Z,20.1
2023-10-20T16:21:59.501Z,20.1
2023-10-20T16:27:52.869Z,20
2023-10-20T16:33:45.577Z,20
2023-10-20T16:39:37.369Z,20
2023-10-20T16:50:49.211Z,20
2023-10-20T16:56:40.943Z,20.1
2023-10-20T17:02:32.594Z,20.1
2023-10-20T17:08:09.690Z,20.1
2023-10-20T17:14:04.421Z,20.1
2023-10-20T17:19:58.453Z,20.1
2023-10-20T17:25:50.083Z,20.1
2023-10-20T17:31:42.171Z,20.1
2023-10-20T17:37:35.192Z,20.2
2023-10-20T17:43:29.857Z,20.2
2023-10-20T17:49:23.308Z,20.2
2023-10-20T17:55:15.158Z,20.3
2023-10-20T18:01:11.817Z,20.3
2023-10-20T18:07:11.046Z,20.3
2023-10-20T18:13:03.615Z,20.3
2023-10-20T18:18:58.599Z,20.3
2023-10-20T18:24:51.540Z,20.3
2023-10-20T18:30:47.348Z,20.3
2023-10-20T18:36:40.642Z,20.3
2023-10-20T18:42:18.890Z,20.3
2023-10-20T18:48:13.449Z,20.2
2023-10-20T18:54:07.131Z,20.2
2023-10-20T19:00:00.081Z,20.2
2023-10-20T19:05:39.144Z,20.2
2023-10-20T19:11:36.059Z,20.2
2023-10-20T19:17:28.778Z,20.1
2023-10-20T19:23:24.076Z,20.1
2023-10-20T19:29:20.198Z,20.1
2023-10-20T19:35:13.841Z,20.1
2023-10-20T19:41:06.730Z,20.1
2023-10-20T19:47:00.656Z,20.1
2023-10-20T19:52:53.601Z,20.1
2023-10-20T19:58:45.698Z,20.1
2023-10-20T20:04:41.708Z,20.1
2023-10-20T20:10:34.084Z,20.1
2023-10-20T20:16:30.126Z,20.1
2023-10-20T20:27:43.900Z,20.1
2023-10-20T20:33:36.589Z,20.1
2023-10-20T20:39:27.654Z,20.1
2023-10-20T20:45:20.848Z,20.1
2023-10-20T20:51:06.758Z,20
2023-10-20T20:56:58.764Z,20.1
2023-10-20T21:02:51.372Z,20.1
2023-10-20T21:14:07.347Z,20.1
2023-10-20T21:20:00.000Z,20.1
2023-10-20T21:25:36.745Z,20.1
2023-10-20T21:31:12.597Z,20.1
2023-10-20T21:36:50.800Z,20.1
2023-10-20T21:42:42.158Z,20.1
2023-10-20T21:48:18.802Z,20.1
2023-10-20T21:53:54.691Z,20.1
2023-10-20T21:59:30.756Z,20.1
2023-10-20T22:05:21.555Z,20
2023-10-20T22:11:24.515Z,20.1
2023-10-20T22:17:00.060Z,20
2023-10-20T22:22:52.231Z,20
2023-10-20T22:28:46.936Z,20
2023-10-20T22:34:39.108Z,20
2023-10-20T22:40:15.841Z,20
2023-10-20T22:46:08.615Z,20
2023-10-20T22:51:47.886Z,20
2023-10-20T23:03:01.472Z,20
2023-10-20T23:08:38.947Z,19.9
2023-10-20T23:14:15.730Z,19.9
2023-10-20T23:25:12.864Z,19.9
2023-10-20T23:30:33.311Z,19.9
2023-10-20T23:36:10.719Z,19.9
2023-10-20T23:42:02.782Z,19.9
2023-10-20T23:47:39.567Z,19.9
2023-10-20T23:53:16.850Z,19.9
2023-10-20T23:58:52.599Z,19.9
